Time;durP1;ratioP1;P1;durP2;ratioP2;P2;SDS_P1;SDS_P2;PMS_P1;PMS_P2;Temp;Humidity;BMP_temperature;BMP_pressure;BME280_temperature;BME280_humidity;BME280_pressure;Samples;Min_cycle;Max_cycle;Signal;HPM_P1;HPM_P2
2023/05/11 00:00:04;;;;;;;11.32;8.07;;;15.90;89.10;;;;;;5071449;28;20036;-68
2023/05/11 00:02:29;;;;;;;12.55;8.60;;;15.90;89.10;;;;;;5072900;28;20497;-69
2023/05/11 00:04:55;;;;;;;9.98;8.00;;;15.90;89.20;;;;;;5077407;28;20032;-69
2023/05/11 00:07:20;;;;;;;11.48;8.27;;;15.90;89.10;;;;;;5072132;28;20030;-67
2023/05/11 00:09:46;;;;;;;10.02;7.68;;;15.90;89.10;;;;;;5072494;28;20116;-69
2023/05/11 00:12:13;;;;;;;10.85;8.40;;;15.90;89.10;;;;;;5071112;28;20021;-69
2023/05/11 00:14:39;;;;;;;12.95;8.80;;;15.90;89.10;;;;;;5072531;28;20016;-69
2023/05/11 00:17:05;;;;;;;11.88;7.72;;;15.90;89.10;;;;;;5077659;28;20032;-69
2023/05/11 00:19:30;;;;;;;11.88;8.27;;;15.90;89.10;;;;;;5092622;28;20078;-69
2023/05/11 00:21:57;;;;;;;12.23;8.55;;;15.90;89.10;;;;;;5092738;28;20028;-69
2023/05/11 00:24:23;;;;;;;12.02;9.07;;;15.90;89.10;;;;;;5092708;28;20697;-69
2023/05/11 00:26:49;;;;;;;12.70;9.25;;;15.90;89.20;;;;;;5091847;28;20059;-68
2023/05/11 00:29:14;;;;;;;12.10;9.00;;;15.80;89.20;;;;;;5092555;28;20024;-68
2023/05/11 00:31:46;;;;;;;11.90;8.80;;;15.80;89.30;;;;;;5092624;28;20378;-68
2023/05/11 00:34:13;;;;;;;11.95;8.32;;;15.90;89.40;;;;;;5092681;28;20051;-69
2023/05/11 00:36:41;;;;;;;12.65;9.60;;;15.80;89.30;;;;;;5092887;28;20031;-69
2023/05/11 00:39:07;;;;;;;11.85;8.13;;;15.80;89.30;;;;;;5092463;28;20111;-68
2023/05/11 00:41:33;;;;;;;12.82;9.10;;;15.70;89.40;;;;;;5092277;28;20031;-69
2023/05/11 00:43:58;;;;;;;12.02;8.50;;;15.70;89.50;;;;;;5092428;28;20034;-68
2023/05/11 00:46:25;;;;;;;13.82;9.43;;;15.70;89.50;;;;;;5092287;28;20383;-69
2023/05/11 00:48:50;;;;;;;15.43;10.32;;;15.70;89.50;;;;;;5092078;28;20663;-69
2023/05/11 00:51:16;;;;;;;14.88;9.93;;;15.70;89.70;;;;;;5091829;28;20024;-70
2023/05/11 00:53:42;;;;;;;13.57;9.10;;;15.60;89.70;;;;;;5091912;28;20031;-69
2023/05/11 00:56:08;;;;;;;12.40;8.52;;;15.70;89.70;;;;;;5084222;28;20016;-70
2023/05/11 00:58:34;;;;;;;14.45;9.52;;;15.60;89.70;;;;;;5084519;28;20044;-68
2023/05/11 01:01:00;;;;;;;12.48;8.82;;;15.60;89.70;;;;;;5079845;28;20020;-70
2023/05/11 01:03:26;;;;;;;13.73;9.70;;;15.60;89.80;;;;;;5091301;28;20069;-68
2023/05/11 01:06:10;;;;;;;13.30;9.30;;;15.60;89.80;;;;;;5091667;28;20063;-67
2023/05/11 01:08:46;;;;;;;14.45;10.15;;;15.60;89.80;;;;;;5091711;28;20036;-68
2023/05/11 01:11:27;;;;;;;14.40;9.88;;;15.60;89.70;;;;;;5090600;28;20430;-68
2023/05/11 01:13:57;;;;;;;14.63;10.00;;;15.60;89.80;;;;;;5090213;28;20592;-69
2023/05/11 01:16:23;;;;;;;11.77;8.80;;;15.60;89.90;;;;;;5091484;28;20024;-69
2023/05/11 01:18:52;;;;;;;13.55;9.57;;;15.60;90.00;;;;;;5089735;28;20043;-69
2023/05/11 01:21:18;;;;;;;13.38;9.30;;;15.60;90.00;;;;;;5091164;28;20024;-68
2023/05/11 01:24:34;;;;;;;13.98;9.23;;;15.60;90.00;;;;;;5089975;28;20084;-68
2023/05/11 01:27:31;;;;;;;14.25;9.52;;;15.60;90.00;;;;;;5052483;28;20123;-69
2023/05/11 01:30:15;;;;;;;14.00;9.50;;;15.50;90.10;;;;;;5071168;28;20021;-68
2023/05/11 01:32:42;;;;;;;11.35;8.60;;;15.50;90.10;;;;;;5071030;28;20025;-69
2023/05/11 01:35:13;;;;;;;11.32;8.00;;;15.50;90.20;;;;;;5071171;28;20028;-67
2023/05/11 01:37:45;;;;;;;11.55;7.78;;;15.50;90.20;;;;;;5070847;28;20527;-68
2023/05/11 01:40:17;;;;;;;11.27;7.50;;;15.50;90.30;;;;;;5070931;28;20032;-68
2023/05/11 01:42:46;;;;;;;;;;;15.60;90.30;;;;;;5071280;28;20032;-67
2023/05/11 01:45:14;;;;;;;10.13;6.25;;;15.50;90.20;;;;;;5070877;28;19908;-67
2023/05/11 01:47:40;;;;;;;10.02;6.75;;;15.60;90.20;;;;;;5070721;28;20047;-67
2023/05/11 01:50:07;;;;;;;12.25;8.35;;;15.50;90.20;;;;;;5070751;28;20029;-70
2023/05/11 01:52:36;;;;;;;10.63;7.45;;;15.50;90.10;;;;;;5070831;28;20214;-71
2023/05/11 01:55:04;;;;;;;9.15;6.72;;;15.60;90.20;;;;;;5070387;28;20028;-70
2023/05/11 01:57:31;;;;;;;9.38;6.68;;;15.50;90.20;;;;;;5069274;28;20497;-70
2023/05/11 01:59:59;;;;;;;9.80;5.80;;;15.60;90.30;;;;;;5077095;28;20386;-70
2023/05/11 02:02:27;;;;;;;7.07;5.15;;;15.60;90.30;;;;;;5090891;28;20035;-69
2023/05/11 02:04:53;;;;;;;6.35;4.60;;;15.60;90.30;;;;;;5090280;28;20020;-70
2023/05/11 02:07:21;;;;;;;7.32;4.93;;;15.60;90.30;;;;;;5090752;28;20054;-69
2023/05/11 02:09:48;;;;;;;10.15;6.10;;;15.60;90.20;;;;;;5090199;28;20085;-70
2023/05/11 02:12:18;;;;;;;10.98;6.32;;;15.60;90.20;;;;;;5090572;28;20028;-71
2023/05/11 02:14:46;;;;;;;9.50;5.97;;;15.60;90.20;;;;;;5089197;28;20491;-70
2023/05/11 02:17:14;;;;;;;9.63;6.50;;;15.60;90.20;;;;;;5090440;28;20175;-70
2023/05/11 02:19:43;;;;;;;7.30;5.30;;;15.60;90.20;;;;;;5085595;28;20020;-70
2023/05/11 02:22:10;;;;;;;8.18;5.88;;;15.60;90.20;;;;;;5073203;28;20371;-70
2023/05/11 02:24:36;;;;;;;9.68;6.28;;;15.60;90.30;;;;;;5071539;28;20039;-70
2023/05/11 02:27:01;;;;;;;10.00;7.00;;;15.60;90.30;;;;;;5072603;28;20032;-71
2023/05/11 02:29:27;;;;;;;11.45;7.22;;;15.60;90.40;;;;;;5073659;28;20035;-71
2023/05/11 02:32:00;;;;;;;10.90;7.93;;;15.60;90.40;;;;;;5070089;28;20182;-70
2023/05/11 02:34:30;;;;;;;10.38;6.95;;;15.60;90.40;;;;;;5070477;28;20028;-70
2023/05/11 02:37:01;;;;;;;10.32;7.07;;;15.70;90.30;;;;;;5068790;28;20637;-66
2023/05/11 02:39:33;;;;;;;9.70;6.90;;;15.60;90.30;;;;;;5078354;28;20028;-69
2023/05/11 02:42:08;;;;;;;8.32;6.28;;;15.60;90.40;;;;;;5078831;28;20032;-69
2023/05/11 02:44:36;;;;;;;8.63;6.20;;;15.60;90.40;;;;;;5068485;28;20024;-69
2023/05/11 02:47:03;;;;;;;10.48;6.90;;;15.60;90.40;;;;;;5081133;28;20170;-69
2023/05/11 02:49:31;;;;;;;9.40;6.70;;;15.60;90.40;;;;;;5083581;28;20031;-68
2023/05/11 02:51:58;;;;;;;9.38;6.53;;;15.60;90.40;;;;;;5090008;28;20027;-66
2023/05/11 02:54:25;;;;;;;7.75;5.07;;;15.60;90.40;;;;;;5090365;28;20025;-68
2023/05/11 02:56:51;;;;;;;10.80;7.15;;;15.50;90.50;;;;;;5076214;28;20027;-67
2023/05/11 02:59:17;;;;;;;9.35;6.22;;;15.50;90.50;;;;;;5089159;28;20059;-67
2023/05/11 03:01:43;;;;;;;11.30;8.10;;;15.60;90.50;;;;;;5079434;28;20065;-69
2023/05/11 03:04:09;;;;;;;8.52;6.10;;;15.60;90.40;;;;;;5078979;28;20100;-67
2023/05/11 03:06:36;;;;;;;9.13;6.50;;;15.50;90.40;;;;;;5069443;28;20582;-70
2023/05/11 03:09:01;;;;;;;10.88;7.47;;;15.50;90.50;;;;;;5087635;28;20024;-69
2023/05/11 03:11:27;;;;;;;12.43;8.45;;;15.50;90.50;;;;;;5088822;28;20038;-69
2023/05/11 03:13:53;;;;;;;10.13;7.32;;;15.50;90.50;;;;;;5088269;28;20047;-68
2023/05/11 03:16:20;;;;;;;10.25;7.47;;;15.50;90.40;;;;;;5082034;28;20103;-68
2023/05/11 03:18:47;;;;;;;11.85;7.65;;;15.50;90.40;;;;;;5069479;28;20117;-68
2023/05/11 03:21:16;;;;;;;10.27;6.65;;;15.50;90.50;;;;;;5068489;28;20124;-69
2023/05/11 03:23:44;;;;;;;11.18;7.75;;;15.40;90.50;;;;;;5069217;28;20028;-70
2023/05/11 03:26:11;;;;;;;10.95;7.88;;;15.40;90.50;;;;;;5075150;28;20020;-69
2023/05/11 03:28:39;;;;;;;11.55;8.55;;;15.40;90.50;;;;;;5089411;28;20027;-70
2023/05/11 03:31:05;;;;;;;11.75;8.00;;;15.40;90.50;;;;;;5089656;28;20066;-70
2023/05/11 03:33:31;;;;;;;10.75;7.60;;;15.40;90.60;;;;;;5083505;28;20048;-69
2023/05/11 03:35:57;;;;;;;13.43;7.35;;;15.40;90.60;;;;;;5071288;28;20096;-69
2023/05/11 03:38:26;;;;;;;11.40;8.00;;;15.40;90.60;;;;;;5068504;28;20416;-70
2023/05/11 03:40:53;;;;;;;16.00;9.55;;;15.40;90.60;;;;;;5068923;28;20374;-70
2023/05/11 03:43:20;;;;;;;17.50;9.95;;;15.30;90.60;;;;;;5053631;28;20024;-69
2023/05/11 03:45:49;;;;;;;16.80;9.73;;;15.40;90.70;;;;;;5070600;28;20055;-69
2023/05/11 03:48:17;;;;;;;15.98;9.30;;;15.30;90.70;;;;;;5091611;28;20027;-69
2023/05/11 03:50:43;;;;;;;27.75;9.77;;;15.30;90.80;;;;;;5092358;28;20051;-68
2023/05/11 03:53:09;;;;;;;21.23;8.50;;;15.30;90.80;;;;;;5072887;28;20026;-69
2023/05/11 03:55:36;;;;;;;29.58;9.32;;;15.30;90.80;;;;;;5073049;28;20423;-68
2023/05/11 03:58:06;;;;;;;30.73;9.75;;;15.20;90.90;;;;;;5071194;28;20067;-70
2023/05/11 04:00:32;;;;;;;22.77;8.30;;;15.20;90.90;;;;;;5085742;28;20019;-70
2023/05/11 04:03:03;;;;;;;24.25;8.98;;;15.20;90.90;;;;;;5088357;28;20017;-70
2023/05/11 04:05:29;;;;;;;31.40;9.35;;;15.20;91.00;;;;;;5072830;28;20031;-70
2023/05/11 04:07:54;;;;;;;21.05;7.95;;;15.20;91.00;;;;;;5074353;28;20032;-69
2023/05/11 04:10:21;;;;;;;26.38;9.07;;;15.20;91.00;;;;;;5072681;28;20021;-68
2023/05/11 04:12:46;;;;;;;21.63;7.28;;;15.20;91.00;;;;;;5075628;28;20099;-69
2023/05/11 04:15:12;;;;;;;21.10;7.18;;;15.20;91.00;;;;;;5092561;28;20656;-69
2023/05/11 04:17:38;;;;;;;24.55;6.57;;;15.20;91.00;;;;;;5092839;28;20012;-69
2023/05/11 04:20:04;;;;;;;29.45;9.13;;;15.20;91.00;;;;;;5092559;28;20062;-70
2023/05/11 04:22:29;;;;;;;16.95;8.40;;;15.20;91.00;;;;;;5087578;28;20387;-70
2023/05/11 04:24:55;;;;;;;11.80;7.53;;;15.10;91.00;;;;;;5071234;28;20024;-71
2023/05/11 04:27:20;;;;;;;11.82;7.13;;;15.20;91.10;;;;;;5072226;28;20032;-71
2023/05/11 04:29:47;;;;;;;10.65;7.20;;;15.20;91.10;;;;;;5072344;28;20115;-70
2023/05/11 04:32:13;;;;;;;12.13;7.00;;;15.20;91.10;;;;;;5073308;28;20020;-70
2023/05/11 04:34:38;;;;;;;15.85;7.82;;;15.20;91.00;;;;;;5091368;28;20032;-70
2023/05/11 04:37:06;;;;;;;16.10;7.80;;;15.20;91.10;;;;;;5092312;28;20025;-69
2023/05/11 04:39:33;;;;;;;29.75;8.80;;;15.20;91.10;;;;;;5067539;28;20044;-69
2023/05/11 04:41:59;;;;;;;28.63;8.60;;;15.20;91.10;;;;;;5061657;28;20382;-70
2023/05/11 04:44:24;;;;;;;14.85;8.20;;;15.20;91.10;;;;;;5081785;28;20133;-69
2023/05/11 04:46:54;;;;;;;14.77;6.85;;;15.20;91.10;;;;;;5092135;28;20128;-70
2023/05/11 04:49:19;;;;;;;11.05;7.57;;;15.20;91.10;;;;;;5071365;28;20491;-70
2023/05/11 04:51:45;;;;;;;11.68;8.55;;;15.20;91.10;;;;;;5083074;28;20021;-69
2023/05/11 04:54:11;;;;;;;11.55;8.02;;;15.30;91.00;;;;;;5072598;28;20048;-70
2023/05/11 04:56:39;;;;;;;11.27;7.78;;;15.30;91.00;;;;;;5083034;28;20020;-68
2023/05/11 04:59:05;;;;;;;11.02;7.85;;;15.30;91.00;;;;;;5077505;28;20380;-71
2023/05/11 05:01:31;;;;;;;12.32;8.65;;;15.30;91.00;;;;;;5083113;28;20020;-70
2023/05/11 05:03:56;;;;;;;15.98;8.82;;;15.30;91.00;;;;;;5083895;28;20543;-68
2023/05/11 05:06:22;;;;;;;10.85;7.13;;;15.30;91.00;;;;;;5090886;28;20016;-71
2023/05/11 05:08:47;;;;;;;12.57;8.65;;;15.30;91.00;;;;;;5069697;28;20403;-70
2023/05/11 05:11:13;;;;;;;17.58;8.35;;;15.30;91.00;;;;;;5081293;28;20063;-67
2023/05/11 05:13:38;;;;;;;20.40;8.35;;;15.30;90.90;;;;;;5069873;28;20027;-69
2023/05/11 05:16:04;;;;;;;13.85;8.75;;;15.30;90.90;;;;;;5087963;28;20380;-69
2023/05/11 05:18:30;;;;;;;19.23;8.30;;;15.30;90.90;;;;;;5077551;28;20028;-70
2023/05/11 05:20:55;;;;;;;15.27;8.48;;;15.30;91.00;;;;;;5067151;28;20031;-70
2023/05/11 05:23:21;;;;;;;10.18;7.57;;;15.30;91.00;;;;;;5080722;28;20446;-70
2023/05/11 05:25:46;;;;;;;10.93;7.22;;;15.30;91.10;;;;;;5073554;28;20025;-70
2023/05/11 05:28:12;;;;;;;9.13;7.03;;;15.30;91.00;;;;;;5079220;28;20029;-70
2023/05/11 05:30:37;;;;;;;12.85;8.13;;;15.30;91.00;;;;;;5079434;28;20061;-69
2023/05/11 05:33:03;;;;;;;11.40;8.00;;;15.40;91.00;;;;;;5074587;28;20029;-68
2023/05/11 05:35:29;;;;;;;11.70;8.10;;;15.30;90.90;;;;;;5089222;28;20016;-69
2023/05/11 05:37:54;;;;;;;11.68;8.07;;;15.30;91.00;;;;;;5077419;28;20423;-70
2023/05/11 05:40:20;;;;;;;11.05;7.97;;;15.30;91.00;;;;;;5080089;28;21222;-68
2023/05/11 05:42:45;;;;;;;12.65;9.05;;;15.30;91.10;;;;;;5074049;28;20479;-69
2023/05/11 05:45:11;;;;;;;11.80;9.20;;;15.40;91.10;;;;;;5087824;28;20059;-69
2023/05/11 05:47:36;;;;;;;12.73;9.55;;;15.30;91.10;;;;;;5073226;28;20056;-69
2023/05/11 05:50:02;;;;;;;12.07;8.40;;;15.20;91.10;;;;;;5087738;28;20138;-68
2023/05/11 05:52:28;;;;;;;11.00;8.40;;;15.00;91.30;;;;;;5089090;28;20017;-68
2023/05/11 05:54:53;;;;;;;10.07;7.57;;;15.00;91.50;;;;;;5089421;28;20161;-69
2023/05/11 05:57:19;;;;;;;10.95;7.93;;;14.90;91.60;;;;;;5088871;28;20044;-68
2023/05/11 05:59:44;;;;;;;9.05;7.15;;;14.90;91.70;;;;;;5089367;28;20024;-70
2023/05/11 06:02:12;;;;;;;7.97;6.43;;;15.00;91.80;;;;;;5085473;28;20095;-69
2023/05/11 06:04:37;;;;;;;9.05;6.38;;;15.00;91.70;;;;;;5090534;28;20024;-69
2023/05/11 06:07:03;;;;;;;7.95;6.25;;;15.00;91.60;;;;;;5082119;28;20093;-69
2023/05/11 06:09:28;;;;;;;9.55;6.43;;;15.10;91.50;;;;;;5073793;28;20028;-69
2023/05/11 06:11:54;;;;;;;9.20;6.10;;;15.10;91.40;;;;;;5072536;28;20024;-68
2023/05/11 06:14:21;;;;;;;7.50;5.65;;;15.20;91.40;;;;;;5070434;28;20062;-69
2023/05/11 06:16:47;;;;;;;8.05;6.45;;;15.20;91.20;;;;;;5070257;28;20017;-67
2023/05/11 06:19:13;;;;;;;8.68;6.57;;;15.20;91.20;;;;;;5070286;28;20021;-67
2023/05/11 06:21:40;;;;;;;9.45;6.60;;;15.20;91.30;;;;;;5070223;28;20051;-69
2023/05/11 06:24:06;;;;;;;8.20;6.15;;;15.20;91.30;;;;;;5070378;28;20536;-70
2023/05/11 06:26:31;;;;;;;7.72;5.95;;;15.30;91.30;;;;;;5079070;28;20032;-68
2023/05/11 06:28:57;;;;;;;9.77;5.80;;;15.30;91.30;;;;;;5087743;28;20032;-69
2023/05/11 06:31:23;;;;;;;8.43;5.80;;;15.40;91.20;;;;;;5081590;28;20067;-69
2023/05/11 06:33:49;;;;;;;7.82;5.55;;;15.50;91.10;;;;;;5074501;28;20059;-68
2023/05/11 06:36:15;;;;;;;8.93;6.28;;;15.50;91.10;;;;;;5070280;28;20476;-68
2023/05/11 06:38:40;;;;;;;7.43;5.43;;;15.50;91.10;;;;;;5070098;28;20040;-69
2023/05/11 06:41:08;;;;;;;7.60;5.72;;;15.60;91.10;;;;;;5070194;28;20020;-69
2023/05/11 06:43:34;;;;;;;7.28;5.82;;;15.70;90.90;;;;;;5069954;28;20058;-70
2023/05/11 06:45:59;;;;;;;8.80;6.28;;;15.90;90.90;;;;;;5070203;28;20056;-69
2023/05/11 06:48:28;;;;;;;8.23;5.72;;;16.00;90.70;;;;;;5069885;28;20032;-70
2023/05/11 06:50:54;;;;;;;8.63;5.53;;;16.20;90.50;;;;;;5069886;28;20020;-69
2023/05/11 06:53:20;;;;;;;7.85;6.03;;;16.40;90.30;;;;;;5070283;28;20077;-69
2023/05/11 06:55:46;;;;;;;9.27;5.97;;;16.40;90.10;;;;;;5068468;28;20021;-69
2023/05/11 06:58:12;;;;;;;9.10;6.53;;;16.50;90.10;;;;;;5066956;28;20021;-71
2023/05/11 07:00:37;;;;;;;9.77;6.85;;;16.50;90.00;;;;;;5069953;28;20077;-71
2023/05/11 07:03:03;;;;;;;10.40;7.45;;;16.60;89.80;;;;;;5076298;28;20059;-70
2023/05/11 07:05:30;;;;;;;12.63;8.85;;;16.60;89.70;;;;;;5073900;28;20017;-71
2023/05/11 07:07:55;;;;;;;12.30;8.65;;;16.60;89.50;;;;;;5069373;28;20024;-70
2023/05/11 07:10:21;;;;;;;12.85;9.00;;;16.70;89.40;;;;;;5069989;28;20029;-70
2023/05/11 07:12:46;;;;;;;13.60;9.43;;;16.70;89.20;;;;;;5069210;28;20032;-70
2023/05/11 07:15:12;;;;;;;9.85;7.75;;;16.70;89.10;;;;;;5073227;28;20031;-71
2023/05/11 07:17:37;;;;;;;11.82;9.05;;;16.70;89.10;;;;;;5064507;28;20098;-70
2023/05/11 07:20:03;;;;;;;12.85;9.18;;;16.70;89.20;;;;;;5073211;28;20037;-70
2023/05/11 07:22:29;;;;;;;14.07;9.70;;;16.70;89.20;;;;;;5070272;28;20024;-69
2023/05/11 07:24:55;;;;;;;14.05;10.60;;;16.70;89.20;;;;;;5069613;28;20055;-67
2023/05/11 07:27:20;;;;;;;16.08;11.30;;;16.80;89.10;;;;;;5073000;28;20434;-70
2023/05/11 07:29:46;;;;;;;14.82;10.98;;;16.80;89.00;;;;;;5078210;28;20073;-71
2023/05/11 07:32:12;;;;;;;16.40;11.40;;;16.90;89.50;;;;;;5073057;28;20028;-69
2023/05/11 07:34:38;;;;;;;25.77;10.77;;;16.90;88.90;;;;;;5073133;28;20058;-69
2023/05/11 07:37:03;;;;;;;13.95;10.13;;;17.00;88.80;;;;;;5073145;28;20111;-68
2023/05/11 07:39:29;;;;;;;16.10;11.15;;;17.00;88.50;;;;;;5073353;28;20052;-70
2023/05/11 07:41:54;;;;;;;13.88;10.55;;;17.00;88.30;;;;;;5072455;28;20659;-70
2023/05/11 07:44:20;;;;;;;14.30;10.35;;;17.10;88.40;;;;;;5078773;28;20642;-70
2023/05/11 07:46:45;;;;;;;14.55;10.68;;;17.10;88.40;;;;;;5089780;28;20518;-70
2023/05/11 07:49:11;;;;;;;14.15;10.27;;;17.10;88.30;;;;;;5073190;28;20396;-70
2023/05/11 07:51:36;;;;;;;13.80;10.00;;;17.10;88.20;;;;;;5085694;28;20016;-69
2023/05/11 07:54:02;;;;;;;14.63;11.50;;;17.10;88.20;;;;;;5091357;28;20510;-70
2023/05/11 07:56:28;;;;;;;18.33;12.07;;;17.00;88.00;;;;;;5075079;28;20096;-70
2023/05/11 07:58:53;;;;;;;17.33;12.35;;;17.10;88.10;;;;;;5083367;28;20016;-70
2023/05/11 08:01:19;;;;;;;17.63;12.60;;;17.10;87.90;;;;;;5072641;28;20040;-69
2023/05/11 08:03:44;;;;;;;16.23;12.25;;;17.10;87.90;;;;;;5072797;28;20028;-70
2023/05/11 08:06:11;;;;;;;15.13;11.68;;;17.10;87.70;;;;;;5089138;28;20020;-68
2023/05/11 08:08:36;;;;;;;17.58;12.13;;;17.10;87.60;;;;;;5092754;28;20107;-70
2023/05/11 08:11:02;;;;;;;14.70;11.35;;;17.20;87.40;;;;;;5092436;28;20586;-70
2023/05/11 08:13:28;;;;;;;18.08;12.75;;;17.20;87.40;;;;;;5092972;28;20020;-69
2023/05/11 08:15:54;;;;;;;18.95;14.75;;;17.20;87.40;;;;;;5085528;28;20025;-70
2023/05/11 08:18:19;;;;;;;17.75;13.25;;;17.10;87.40;;;;;;5072596;28;20088;-70
2023/05/11 08:20:45;;;;;;;20.10;14.82;;;17.10;87.50;;;;;;5072526;28;20021;-70
2023/05/11 08:23:15;;;;;;;18.50;14.38;;;17.10;87.50;;;;;;5072511;28;20112;-69
2023/05/11 08:25:47;;;;;;;17.95;14.27;;;17.00;87.60;;;;;;5072412;28;20024;-70
2023/05/11 08:28:13;;;;;;;19.98;14.75;;;17.00;87.30;;;;;;5072304;28;20036;-70
2023/05/11 08:30:38;;;;;;;18.25;14.00;;;17.00;87.40;;;;;;5083558;28;20069;-70
2023/05/11 08:33:04;;;;;;;18.08;14.52;;;17.10;87.40;;;;;;5074684;28;20021;-68
2023/05/11 08:35:29;;;;;;;17.13;13.45;;;17.10;87.40;;;;;;5075137;28;20495;-70
2023/05/11 08:37:55;;;;;;;21.67;16.63;;;17.00;87.10;;;;;;5083641;28;20462;-68
2023/05/11 08:40:22;;;;;;;18.83;14.90;;;17.10;87.00;;;;;;5082326;28;20044;-70
2023/05/11 08:42:52;;;;;;;16.98;13.13;;;17.10;86.90;;;;;;5080595;28;20031;-70
2023/05/11 08:45:18;;;;;;;22.15;16.60;;;17.20;86.90;;;;;;5071068;28;20486;-69
2023/05/11 08:47:45;;;;;;;20.05;15.55;;;17.20;86.70;;;;;;5078260;28;20028;-69
2023/05/11 08:50:10;;;;;;;21.95;16.15;;;17.20;86.60;;;;;;5074589;28;20040;-71
2023/05/11 08:52:36;;;;;;;21.60;16.15;;;17.20;86.50;;;;;;5085299;28;20024;-70
2023/05/11 08:55:02;;;;;;;22.17;17.38;;;17.30;86.50;;;;;;5091339;28;20421;-70
2023/05/11 08:57:31;;;;;;;21.25;16.13;;;17.30;86.30;;;;;;5071648;28;20434;-69
2023/05/11 08:59:58;;;;;;;21.10;15.90;;;17.30;86.30;;;;;;5088310;28;20490;-70
2023/05/11 09:02:25;;;;;;;20.42;16.92;;;17.40;86.20;;;;;;5089666;28;20028;-70
2023/05/11 09:04:51;;;;;;;20.85;16.35;;;17.50;85.90;;;;;;5075466;28;20110;-69
2023/05/11 09:07:17;;;;;;;23.27;18.10;;;17.70;85.70;;;;;;5073537;28;20063;-69
2023/05/11 09:09:44;;;;;;;22.17;17.95;;;18.00;85.20;;;;;;5071322;28;20020;-70
2023/05/11 09:12:10;;;;;;;23.73;17.95;;;18.00;84.50;;;;;;5070377;28;20093;-70
2023/05/11 09:14:36;;;;;;;21.58;16.70;;;18.20;84.10;;;;;;5072587;28;20104;-70
2023/05/11 09:17:02;;;;;;;21.10;16.42;;;18.30;83.50;;;;;;5071796;28;20729;-70
2023/05/11 09:19:28;;;;;;;19.92;15.73;;;18.40;83.40;;;;;;5076507;28;20028;-70
2023/05/11 09:21:53;;;;;;;20.65;15.60;;;18.50;83.20;;;;;;5091926;28;20080;-70
2023/05/11 09:24:20;;;;;;;21.80;17.10;;;18.60;82.90;;;;;;5090255;28;20668;-70
2023/05/11 09:26:46;;;;;;;20.98;16.27;;;18.60;82.30;;;;;;5091271;28;20119;-70
2023/05/11 09:29:11;;;;;;;19.45;15.05;;;18.50;81.90;;;;;;5086815;28;20119;-70
2023/05/11 09:31:39;;;;;;;15.68;12.93;;;18.50;82.00;;;;;;5077504;28;20100;-70
2023/05/11 09:34:18;;;;;;;22.42;16.83;;;18.50;82.10;;;;;;5087909;28;20014;-69
2023/05/11 09:36:50;;;;;;;17.02;14.00;;;18.40;81.90;;;;;;5089276;28;20055;-69
2023/05/11 09:39:18;;;;;;;17.02;12.75;;;18.30;81.90;;;;;;5089726;28;20016;-69
2023/05/11 09:41:44;;;;;;;15.93;11.57;;;18.20;82.00;;;;;;5075514;28;20180;-70
2023/05/11 09:44:12;;;;;;;15.35;12.23;;;18.20;81.90;;;;;;5070746;28;20021;-70
2023/05/11 09:46:39;;;;;;;16.75;13.43;;;18.10;81.70;;;;;;5081083;28;20024;-70
2023/05/11 09:49:05;;;;;;;17.02;13.98;;;18.10;81.50;;;;;;5090817;28;20103;-70
2023/05/11 09:51:33;;;;;;;17.00;13.70;;;18.00;81.80;;;;;;5087966;28;20475;-69
2023/05/11 09:54:01;;;;;;;15.02;11.57;;;17.90;82.10;;;;;;5070781;28;20096;-70
2023/05/11 09:57:03;;;;;;;11.75;9.25;;;17.90;82.40;;;;;;5076506;28;20020;-72
2023/05/11 09:59:39;;;;;;;13.73;11.13;;;18.00;82.40;;;;;;4988781;28;20029;-71
2023/05/11 10:02:25;;;;;;;17.08;13.00;;;18.00;82.50;;;;;;5042635;28;20029;-69
2023/05/11 10:04:53;;;;;;;14.35;11.90;;;18.00;82.50;;;;;;5050568;28;20025;-68
2023/05/11 10:07:35;;;;;;;16.98;12.90;;;17.90;82.40;;;;;;5064559;28;20106;-68
2023/05/11 10:10:01;;;;;;;14.50;11.38;;;17.80;82.50;;;;;;5090602;28;20054;-71
2023/05/11 10:12:29;;;;;;;14.40;11.75;;;17.80;82.70;;;;;;5087112;28;20012;-69
2023/05/11 10:15:08;;;;;;;16.45;13.32;;;17.80;82.70;;;;;;5090592;28;20020;-70
2023/05/11 10:17:34;;;;;;;13.68;10.77;;;17.80;83.00;;;;;;5090039;28;20054;-68
2023/05/11 10:20:02;;;;;;;13.63;10.60;;;17.90;82.80;;;;;;5090691;28;20077;-68
2023/05/11 10:22:29;;;;;;;13.13;10.07;;;17.90;82.80;;;;;;5073485;28;20028;-68
2023/05/11 10:24:58;;;;;;;11.63;9.40;;;18.00;82.70;;;;;;5070089;28;20040;-67
2023/05/11 10:27:25;;;;;;;14.50;11.27;;;18.20;82.50;;;;;;5084067;28;20036;-68
2023/05/11 10:29:51;;;;;;;11.48;9.07;;;18.20;82.00;;;;;;5089095;28;20106;-68
2023/05/11 10:32:18;;;;;;;10.25;8.02;;;18.30;82.10;;;;;;5088884;28;20119;-68
2023/05/11 10:34:49;;;;;;;11.32;7.68;;;18.40;81.80;;;;;;5090151;28;20475;-68
2023/05/11 10:37:15;;;;;;;8.65;7.35;;;18.50;81.30;;;;;;5068744;28;20031;-68
2023/05/11 10:39:42;;;;;;;9.82;7.72;;;18.50;80.80;;;;;;5085080;28;20555;-67
2023/05/11 10:42:29;;;;;;;7.28;6.32;;;18.60;79.50;;;;;;5085786;28;20028;-67
2023/05/11 10:45:25;;;;;;;8.60;6.63;;;18.70;79.40;;;;;;5084210;28;20028;-69
2023/05/11 10:48:18;;;;;;;9.50;7.90;;;18.90;79.30;;;;;;5090050;28;20035;-70
2023/05/11 10:50:55;;;;;;;9.98;8.18;;;18.90;78.80;;;;;;5090026;28;20494;-70
2023/05/11 10:53:36;;;;;;;10.15;7.85;;;18.80;79.30;;;;;;5090064;28;20032;-69
2023/05/11 10:56:11;;;;;;;10.95;8.25;;;18.80;78.20;;;;;;5074735;28;20036;-70
2023/05/11 10:58:46;;;;;;;9.63;8.00;;;18.60;77.00;;;;;;5075182;28;20089;-67
2023/05/11 11:01:36;;;;;;;8.40;7.20;;;18.50;77.00;;;;;;5072225;28;20085;-66
2023/05/11 11:04:05;;;;;;;10.75;8.30;;;18.60;77.20;;;;;;5082627;28;20464;-69
2023/05/11 11:06:32;;;;;;;9.30;7.50;;;18.50;77.20;;;;;;5080853;28;20020;-68
2023/05/11 11:09:03;;;;;;;9.32;7.55;;;18.70;77.60;;;;;;5085619;28;20029;-68
2023/05/11 11:11:28;;;;;;;7.87;6.50;;;18.90;77.50;;;;;;5060379;28;20029;-69
2023/05/11 11:14:01;;;;;;;8.63;7.30;;;19.00;77.30;;;;;;5069860;28;20081;-68
2023/05/11 11:16:27;;;;;;;8.98;7.18;;;19.00;77.10;;;;;;5072054;28;20021;-68
2023/05/11 11:19:31;;;;;;;9.70;7.82;;;19.20;77.20;;;;;;5072221;28;20387;-69
2023/05/11 11:22:00;;;;;;;8.27;7.00;;;19.30;76.80;;;;;;5071002;28;20021;-68
2023/05/11 11:24:37;;;;;;;9.32;7.28;;;19.30;76.50;;;;;;5073268;28;20060;-68
2023/05/11 11:27:04;;;;;;;10.20;8.52;;;19.30;76.30;;;;;;5071319;28;20086;-69
2023/05/11 11:29:30;;;;;;;9.98;8.07;;;19.20;76.20;;;;;;5073093;28;20116;-68
2023/05/11 11:32:18;;;;;;;14.70;12.35;;;19.20;76.40;;;;;;5069509;28;20031;-69
2023/05/11 11:34:47;;;;;;;16.95;12.75;;;19.20;75.80;;;;;;5072913;28;20021;-69
2023/05/11 11:37:14;;;;;;;14.88;12.60;;;19.00;75.90;;;;;;5073385;28;20021;-69
2023/05/11 11:39:40;;;;;;;14.18;11.77;;;19.00;76.20;;;;;;5073348;28;20028;-69
2023/05/11 11:42:07;;;;;;;14.88;11.90;;;18.80;76.30;;;;;;5073356;28;20032;-68
2023/05/11 11:44:37;;;;;;;17.98;14.90;;;18.60;76.60;;;;;;5079114;28;20021;-68
2023/05/11 11:47:17;;;;;;;15.18;12.48;;;18.40;76.60;;;;;;5093636;28;20034;-69
2023/05/11 11:49:48;;;;;;;18.95;15.10;;;18.30;77.40;;;;;;5091664;28;20016;-69
2023/05/11 11:52:32;;;;;;;17.77;14.57;;;18.00;78.10;;;;;;5087554;28;20377;-68
2023/05/11 11:54:59;;;;;;;17.63;13.55;;;17.90;78.70;;;;;;5086202;28;20107;-68
2023/05/11 11:57:33;;;;;;;13.95;11.43;;;17.70;78.90;;;;;;5092980;28;20047;-69
2023/05/11 12:00:10;;;;;;;12.48;10.40;;;17.70;79.40;;;;;;5093211;28;20359;-67
2023/05/11 12:02:43;;;;;;;15.23;11.20;;;17.70;79.60;;;;;;5093538;28;20020;-67
2023/05/11 12:05:17;;;;;;;14.77;11.95;;;17.70;79.70;;;;;;5086928;28;20017;-68
2023/05/11 12:07:52;;;;;;;14.77;11.82;;;17.70;79.80;;;;;;5066463;28;20107;-68
2023/05/11 12:10:20;;;;;;;13.85;11.50;;;17.80;80.00;;;;;;5074013;28;20123;-67
2023/05/11 12:12:46;;;;;;;13.55;11.00;;;17.80;80.20;;;;;;5086409;28;20032;-68
2023/05/11 12:15:26;;;;;;;12.45;10.10;;;17.90;80.20;;;;;;5069969;28;20016;-69
2023/05/11 12:17:52;;;;;;;11.07;9.15;;;17.90;80.30;;;;;;5072234;28;20078;-67
2023/05/11 12:20:19;;;;;;;10.75;8.93;;;17.90;80.40;;;;;;5080893;28;20078;-68
2023/05/11 12:22:47;;;;;;;9.82;7.93;;;17.90;80.60;;;;;;5072516;28;20479;-67
2023/05/11 12:25:16;;;;;;;8.95;7.55;;;17.90;80.60;;;;;;5082812;28;20091;-70
2023/05/11 12:28:02;;;;;;;9.02;7.07;;;18.00;80.50;;;;;;5086720;28;20067;-68
2023/05/11 12:30:29;;;;;;;8.77;6.80;;;18.00;81.10;;;;;;5087045;28;20028;-69
2023/05/11 12:32:55;;;;;;;10.20;7.82;;;18.10;80.50;;;;;;5090749;28;20017;-68
2023/05/11 12:35:24;;;;;;;7.43;5.95;;;18.20;80.40;;;;;;5092051;28;20050;-68
2023/05/11 12:37:50;;;;;;;8.57;6.93;;;18.30;80.30;;;;;;5091102;28;20031;-68
2023/05/11 12:40:16;;;;;;;8.43;7.15;;;18.40;80.10;;;;;;5081660;28;20017;-68